sensor_id;sensor_type;location;lat;lon;timestamp;pressure;altitude;pressure_sealevel;temperature;humidity
67803;BME280;54601;51.378;-1.342;2022-12-10T00:00:39;99549.61;;;18.30;24.79
67803;BME280;54601;51.378;-1.342;2022-12-10T00:03:03;99552.54;;;18.33;24.75
67803;BME280;54601;51.378;-1.342;2022-12-10T00:05:29;99552.09;;;18.55;24.78
67803;BME280;54601;51.378;-1.342;2022-12-10T00:07:53;99554.43;;;18.56;24.77
67803;BME280;54601;51.378;-1.342;2022-12-10T00:10:19;99556.25;;;18.42;24.98
67803;BME280;54601;51.378;-1.342;2022-12-10T00:12:44;99556.42;;;18.47;24.90
67803;BME280;54601;51.378;-1.342;2022-12-10T00:15:10;99560.58;;;18.81;24.80
67803;BME280;54601;51.378;-1.342;2022-12-10T00:17:34;99561.85;;;18.44;24.90
67803;BME280;54601;51.378;-1.342;2022-12-10T00:19:59;99555.72;;;18.19;24.98
67803;BME280;54601;51.378;-1.342;2022-12-10T00:22:24;99555.82;;;18.21;24.90
67803;BME280;54601;51.378;-1.342;2022-12-10T00:24:49;99554.46;;;18.78;24.84
67803;BME280;54601;51.378;-1.342;2022-12-10T00:27:15;99557.78;;;18.57;24.77
67803;BME280;54601;51.378;-1.342;2022-12-10T00:29:40;99557.55;;;18.56;24.80
67803;BME280;54601;51.378;-1.342;2022-12-10T00:32:05;99554.37;;;18.28;24.84
67803;BME280;54601;51.378;-1.342;2022-12-10T00:34:30;99552.26;;;18.25;24.85
67803;BME280;54601;51.378;-1.342;2022-12-10T00:36:55;99554.74;;;18.46;24.93
67803;BME280;54601;51.378;-1.342;2022-12-10T00:39:21;99551.74;;;18.41;24.98
67803;BME280;54601;51.378;-1.342;2022-12-10T00:41:46;99552.10;;;18.71;24.93
67803;BME280;54601;51.378;-1.342;2022-12-10T00:44:11;99551.81;;;18.59;25.10
67803;BME280;54601;51.378;-1.342;2022-12-10T00:46:36;99555.27;;;18.71;24.85
67803;BME280;54601;51.378;-1.342;2022-12-10T00:49:01;99554.35;;;18.40;24.91
67803;BME280;54601;51.378;-1.342;2022-12-10T00:51:27;99557.03;;;18.69;24.89
67803;BME280;54601;51.378;-1.342;2022-12-10T00:53:53;99556.60;;;18.74;24.84
67803;BME280;54601;51.378;-1.342;2022-12-10T00:56:18;99557.44;;;18.49;24.78
67803;BME280;54601;51.378;-1.342;2022-12-10T00:58:42;99561.02;;;18.46;24.90
67803;BME280;54601;51.378;-1.342;2022-12-10T01:01:10;99560.57;;;18.14;24.86
67803;BME280;54601;51.378;-1.342;2022-12-10T01:03:32;99563.38;;;18.44;24.82
67803;BME280;54601;51.378;-1.342;2022-12-10T01:06:01;99566.70;;;18.30;24.72
67803;BME280;54601;51.378;-1.342;2022-12-10T01:08:23;99566.54;;;18.41;24.83
67803;BME280;54601;51.378;-1.342;2022-12-10T01:10:52;99569.05;;;18.75;24.77
67803;BME280;54601;51.378;-1.342;2022-12-10T01:13:14;99569.73;;;18.45;24.81
67803;BME280;54601;51.378;-1.342;2022-12-10T01:15:38;99566.64;;;18.25;24.74
67803;BME280;54601;51.378;-1.342;2022-12-10T01:18:04;99570.32;;;18.42;24.83
67803;BME280;54601;51.378;-1.342;2022-12-10T01:20:29;99573.55;;;18.53;24.61
67803;BME280;54601;51.378;-1.342;2022-12-10T01:22:54;99571.68;;;18.33;24.89
67803;BME280;54601;51.378;-1.342;2022-12-10T01:25:19;99571.72;;;18.31;24.61
67803;BME280;54601;51.378;-1.342;2022-12-10T01:27:44;99574.18;;;18.65;24.80
67803;BME280;54601;51.378;-1.342;2022-12-10T01:30:11;99569.46;;;18.50;24.63
67803;BME280;54601;51.378;-1.342;2022-12-10T01:32:35;99571.57;;;18.45;24.69
67803;BME280;54601;51.378;-1.342;2022-12-10T01:35:00;99572.75;;;18.36;24.77
67803;BME280;54601;51.378;-1.342;2022-12-10T01:37:25;99572.56;;;18.43;24.68
67803;BME280;54601;51.378;-1.342;2022-12-10T01:39:50;99569.50;;;18.36;24.81
67803;BME280;54601;51.378;-1.342;2022-12-10T01:42:16;99568.98;;;18.41;24.69
67803;BME280;54601;51.378;-1.342;2022-12-10T01:47:06;99573.79;;;18.30;24.84
67803;BME280;54601;51.378;-1.342;2022-12-10T01:49:33;99575.24;;;18.48;24.59
67803;BME280;54601;51.378;-1.342;2022-12-10T01:51:56;99579.16;;;18.47;24.57
67803;BME280;54601;51.378;-1.342;2022-12-10T01:54:24;99577.66;;;18.36;24.69
67803;BME280;54601;51.378;-1.342;2022-12-10T01:56:50;99572.96;;;18.49;24.51
67803;BME280;54601;51.378;-1.342;2022-12-10T01:59:13;99574.49;;;18.38;24.70
67803;BME280;54601;51.378;-1.342;2022-12-10T02:01:44;99577.36;;;18.22;24.51
67803;BME280;54601;51.378;-1.342;2022-12-10T02:04:11;99574.41;;;18.12;24.58
67803;BME280;54601;51.378;-1.342;2022-12-10T02:06:37;99573.45;;;18.20;24.48
67803;BME280;54601;51.378;-1.342;2022-12-10T02:09:02;99573.56;;;18.38;24.48
67803;BME280;54601;51.378;-1.342;2022-12-10T02:11:24;99572.18;;;18.50;24.33
67803;BME280;54601;51.378;-1.342;2022-12-10T02:13:48;99569.88;;;18.60;24.58
67803;BME280;54601;51.378;-1.342;2022-12-10T02:16:13;99571.63;;;18.10;24.60
67803;BME280;54601;51.378;-1.342;2022-12-10T02:18:38;99573.52;;;18.18;24.56
67803;BME280;54601;51.378;-1.342;2022-12-10T02:21:03;99572.75;;;18.39;24.44
67803;BME280;54601;51.378;-1.342;2022-12-10T02:23:27;99568.63;;;18.14;24.61
67803;BME280;54601;51.378;-1.342;2022-12-10T02:25:56;99564.78;;;18.29;24.53
67803;BME280;54601;51.378;-1.342;2022-12-10T02:28:19;99561.13;;;18.13;24.43
67803;BME280;54601;51.378;-1.342;2022-12-10T02:30:41;99563.87;;;18.31;24.39
67803;BME280;54601;51.378;-1.342;2022-12-10T02:33:06;99559.39;;;18.11;24.44
67803;BME280;54601;51.378;-1.342;2022-12-10T02:35:33;99560.80;;;18.57;24.45
67803;BME280;54601;51.378;-1.342;2022-12-10T02:38:01;99563.46;;;18.24;24.51
67803;BME280;54601;51.378;-1.342;2022-12-10T02:40:24;99563.91;;;18.00;24.52
67803;BME280;54601;51.378;-1.342;2022-12-10T02:42:49;99565.09;;;18.62;24.43
67803;BME280;54601;51.378;-1.342;2022-12-10T02:45:12;99565.37;;;18.05;24.49
67803;BME280;54601;51.378;-1.342;2022-12-10T02:47:39;99567.19;;;18.38;24.31
67803;BME280;54601;51.378;-1.342;2022-12-10T02:50:02;99564.88;;;18.10;24.34
67803;BME280;54601;51.378;-1.342;2022-12-10T02:52:27;99564.11;;;18.04;24.37
67803;BME280;54601;51.378;-1.342;2022-12-10T02:54:52;99567.08;;;18.27;24.33
67803;BME280;54601;51.378;-1.342;2022-12-10T02:57:28;99569.08;;;18.09;24.55
67803;BME280;54601;51.378;-1.342;2022-12-10T02:59:56;99570.93;;;18.19;24.45
67803;BME280;54601;51.378;-1.342;2022-12-10T03:02:11;99567.42;;;18.28;24.39
67803;BME280;54601;51.378;-1.342;2022-12-10T03:04:39;99569.51;;;17.84;24.63
67803;BME280;54601;51.378;-1.342;2022-12-10T03:07:02;99566.04;;;18.14;24.55
67803;BME280;54601;51.378;-1.342;2022-12-10T03:09:29;99567.16;;;18.26;24.33
67803;BME280;54601;51.378;-1.342;2022-12-10T03:11:54;99567.32;;;18.25;24.32
67803;BME280;54601;51.378;-1.342;2022-12-10T03:14:16;99569.00;;;18.16;24.37
67803;BME280;54601;51.378;-1.342;2022-12-10T03:16:42;99564.05;;;18.36;24.44
67803;BME280;54601;51.378;-1.342;2022-12-10T03:19:07;99562.71;;;18.15;24.39
67803;BME280;54601;51.378;-1.342;2022-12-10T03:21:30;99558.44;;;18.22;24.32
67803;BME280;54601;51.378;-1.342;2022-12-10T03:23:54;99558.06;;;18.21;24.29
67803;BME280;54601;51.378;-1.342;2022-12-10T03:26:21;99559.00;;;18.20;24.68
67803;BME280;54601;51.378;-1.342;2022-12-10T03:28:48;99554.48;;;18.11;24.38
67803;BME280;54601;51.378;-1.342;2022-12-10T03:31:12;99560.41;;;18.31;24.47
67803;BME280;54601;51.378;-1.342;2022-12-10T03:33:36;99557.61;;;18.15;24.35
67803;BME280;54601;51.378;-1.342;2022-12-10T03:36:01;99558.43;;;17.83;24.35
67803;BME280;54601;51.378;-1.342;2022-12-10T03:38:26;99560.67;;;18.35;24.39
67803;BME280;54601;51.378;-1.342;2022-12-10T03:40:51;99562.80;;;18.02;24.39
67803;BME280;54601;51.378;-1.342;2022-12-10T03:43:16;99557.13;;;18.08;24.32
67803;BME280;54601;51.378;-1.342;2022-12-10T03:45:41;99556.13;;;18.32;24.40
67803;BME280;54601;51.378;-1.342;2022-12-10T03:48:06;99555.40;;;18.27;24.39
67803;BME280;54601;51.378;-1.342;2022-12-10T03:50:32;99554.27;;;18.08;24.35
67803;BME280;54601;51.378;-1.342;2022-12-10T03:52:57;99556.54;;;18.06;24.33
67803;BME280;54601;51.378;-1.342;2022-12-10T03:55:22;99556.19;;;18.01;24.34
67803;BME280;54601;51.378;-1.342;2022-12-10T03:57:47;99553.33;;;18.14;24.55
67803;BME280;54601;51.378;-1.342;2022-12-10T04:00:13;99555.15;;;18.26;24.42
67803;BME280;54601;51.378;-1.342;2022-12-10T04:02:38;99558.12;;;18.00;24.41
67803;BME280;54601;51.378;-1.342;2022-12-10T04:05:04;99556.97;;;17.93;24.58
67803;BME280;54601;51.378;-1.342;2022-12-10T04:07:28;99552.24;;;17.97;24.61
67803;BME280;54601;51.378;-1.342;2022-12-10T04:09:53;99549.22;;;18.06;24.54
67803;BME280;54601;51.378;-1.342;2022-12-10T04:12:19;99548.69;;;18.45;24.28
67803;BME280;54601;51.378;-1.342;2022-12-10T04:14:44;99551.47;;;18.36;24.45
67803;BME280;54601;51.378;-1.342;2022-12-10T04:17:09;99550.68;;;18.05;24.48
67803;BME280;54601;51.378;-1.342;2022-12-10T04:19:35;99553.61;;;17.93;24.66
67803;BME280;54601;51.378;-1.342;2022-12-10T04:21:59;99553.18;;;17.96;24.62
67803;BME280;54601;51.378;-1.342;2022-12-10T04:24:27;99553.44;;;18.16;24.43
67803;BME280;54601;51.378;-1.342;2022-12-10T04:26:50;99554.92;;;18.02;24.61
67803;BME280;54601;51.378;-1.342;2022-12-10T04:29:15;99554.32;;;18.10;24.48
67803;BME280;54601;51.378;-1.342;2022-12-10T04:31:40;99555.89;;;18.44;24.33
67803;BME280;54601;51.378;-1.342;2022-12-10T04:34:05;99557.07;;;18.42;24.37
67803;BME280;54601;51.378;-1.342;2022-12-10T04:36:31;99561.02;;;17.96;24.57
67803;BME280;54601;51.378;-1.342;2022-12-10T04:38:56;99559.28;;;18.33;24.49
67803;BME280;54601;51.378;-1.342;2022-12-10T04:41:21;99558.88;;;18.04;24.52
67803;BME280;54601;51.378;-1.342;2022-12-10T04:43:46;99560.27;;;18.03;24.59
67803;BME280;54601;51.378;-1.342;2022-12-10T04:46:11;99559.02;;;18.29;24.51
67803;BME280;54601;51.378;-1.342;2022-12-10T04:48:37;99558.36;;;17.96;24.71
67803;BME280;54601;51.378;-1.342;2022-12-10T04:51:02;99557.55;;;18.24;24.67
67803;BME280;54601;51.378;-1.342;2022-12-10T04:53:27;99553.76;;;18.09;24.44
67803;BME280;54601;51.378;-1.342;2022-12-10T04:55:52;99553.54;;;17.94;24.66
67803;BME280;54601;51.378;-1.342;2022-12-10T04:58:17;99553.06;;;18.35;24.57
67803;BME280;54601;51.378;-1.342;2022-12-10T05:00:43;99555.55;;;18.22;24.74
67803;BME280;54601;51.378;-1.342;2022-12-10T05:03:08;99554.47;;;18.30;24.62
67803;BME280;54601;51.378;-1.342;2022-12-10T05:05:33;99555.88;;;17.74;24.66
67803;BME280;54601;51.378;-1.342;2022-12-10T05:07:58;99553.92;;;18.03;24.57
67803;BME280;54601;51.378;-1.342;2022-12-10T05:10:23;99554.10;;;18.03;24.63
67803;BME280;54601;51.378;-1.342;2022-12-10T05:12:49;99552.87;;;18.01;24.62
67803;BME280;54601;51.378;-1.342;2022-12-10T05:15:14;99555.01;;;18.15;24.75
67803;BME280;54601;51.378;-1.342;2022-12-10T05:17:39;99550.00;;;18.28;24.66
67803;BME280;54601;51.378;-1.342;2022-12-10T05:20:05;99551.33;;;17.91;24.75
67803;BME280;54601;51.378;-1.342;2022-12-10T05:22:29;99548.30;;;17.97;24.69
67803;BME280;54601;51.378;-1.342;2022-12-10T05:24:55;99547.60;;;18.31;24.56
67803;BME280;54601;51.378;-1.342;2022-12-10T05:27:20;99546.89;;;17.88;24.52
67803;BME280;54601;51.378;-1.342;2022-12-10T05:29:45;99549.15;;;18.11;24.50
67803;BME280;54601;51.378;-1.342;2022-12-10T05:32:10;99547.91;;;18.20;24.73
67803;BME280;54601;51.378;-1.342;2022-12-10T05:34:35;99548.14;;;18.36;24.48
67803;BME280;54601;51.378;-1.342;2022-12-10T05:37:01;99546.78;;;18.14;24.73
67803;BME280;54601;51.378;-1.342;2022-12-10T05:39:26;99546.86;;;18.31;24.58
67803;BME280;54601;51.378;-1.342;2022-12-10T05:41:51;99550.46;;;18.03;24.57
67803;BME280;54601;51.378;-1.342;2022-12-10T05:44:16;99554.84;;;18.19;24.80
67803;BME280;54601;51.378;-1.342;2022-12-10T05:46:41;99549.80;;;18.11;24.45
67803;BME280;54601;51.378;-1.342;2022-12-10T05:49:07;99553.67;;;17.99;24.70
67803;BME280;54601;51.378;-1.342;2022-12-10T05:51:33;99554.75;;;18.24;24.70
67803;BME280;54601;51.378;-1.342;2022-12-10T05:53:58;99555.44;;;18.12;24.82
67803;BME280;54601;51.378;-1.342;2022-12-10T05:56:23;99554.84;;;18.00;24.65
67803;BME280;54601;51.378;-1.342;2022-12-10T05:58:49;99556.88;;;18.14;24.49
67803;BME280;54601;51.378;-1.342;2022-12-10T06:01:14;99557.75;;;18.08;24.52
67803;BME280;54601;51.378;-1.342;2022-12-10T06:03:37;99556.43;;;18.02;24.58
67803;BME280;54601;51.378;-1.342;2022-12-10T06:06:03;99558.01;;;18.00;24.66
67803;BME280;54601;51.378;-1.342;2022-12-10T06:08:28;99559.37;;;17.96;24.70
67803;BME280;54601;51.378;-1.342;2022-12-10T06:10:53;99558.76;;;18.15;24.44
67803;BME280;54601;51.378;-1.342;2022-12-10T06:13:18;99561.00;;;18.23;24.66
67803;BME280;54601;51.378;-1.342;2022-12-10T06:15:44;99560.73;;;18.32;24.53
67803;BME280;54601;51.378;-1.342;2022-12-10T06:18:09;99563.09;;;18.02;24.66
67803;BME280;54601;51.378;-1.342;2022-12-10T06:20:37;99563.65;;;18.25;24.64
67803;BME280;54601;51.378;-1.342;2022-12-10T06:22:59;99565.11;;;18.05;24.60
67803;BME280;54601;51.378;-1.342;2022-12-10T06:25:24;99561.51;;;18.04;24.54
67803;BME280;54601;51.378;-1.342;2022-12-10T06:27:49;99560.13;;;18.29;24.71
67803;BME280;54601;51.378;-1.342;2022-12-10T06:30:15;99556.23;;;18.12;24.48
67803;BME280;54601;51.378;-1.342;2022-12-10T06:32:39;99554.56;;;18.31;24.55
67803;BME280;54601;51.378;-1.342;2022-12-10T06:35:05;99558.61;;;18.22;24.71
67803;BME280;54601;51.378;-1.342;2022-12-10T06:37:30;99553.42;;;18.36;24.58
67803;BME280;54601;51.378;-1.342;2022-12-10T06:39:55;99554.94;;;17.99;24.65
67803;BME280;54601;51.378;-1.342;2022-12-10T06:42:20;99555.09;;;18.27;24.66
67803;BME280;54601;51.378;-1.342;2022-12-10T06:44:47;99556.86;;;18.16;24.45
67803;BME280;54601;51.378;-1.342;2022-12-10T06:47:11;99556.64;;;18.35;24.53
67803;BME280;54601;51.378;-1.342;2022-12-10T06:49:36;99557.61;;;18.15;24.45
67803;BME280;54601;51.378;-1.342;2022-12-10T06:52:02;99559.59;;;17.89;24.49
67803;BME280;54601;51.378;-1.342;2022-12-10T06:54:26;99564.23;;;18.30;23.74
67803;BME280;54601;51.378;-1.342;2022-12-10T06:56:51;99564.77;;;18.62;23.83
67803;BME280;54601;51.378;-1.342;2022-12-10T06:59:16;99564.55;;;18.51;23.89
67803;BME280;54601;51.378;-1.342;2022-12-10T07:01:41;99561.39;;;18.45;24.11
67803;BME280;54601;51.378;-1.342;2022-12-10T07:04:08;99562.81;;;18.35;24.28
67803;BME280;54601;51.378;-1.342;2022-12-10T07:06:32;99566.25;;;18.52;24.04
67803;BME280;54601;51.378;-1.342;2022-12-10T07:08:57;99569.30;;;18.31;24.24
67803;BME280;54601;51.378;-1.342;2022-12-10T07:11:24;99569.02;;;18.18;24.11
67803;BME280;54601;51.378;-1.342;2022-12-10T07:13:47;99567.58;;;18.42;24.14
67803;BME280;54601;51.378;-1.342;2022-12-10T07:16:14;99567.90;;;18.48;23.99
67803;BME280;54601;51.378;-1.342;2022-12-10T07:18:37;99565.79;;;18.25;24.21
67803;BME280;54601;51.378;-1.342;2022-12-10T07:21:13;99568.06;;;18.23;24.29
67803;BME280;54601;51.378;-1.342;2022-12-10T07:23:28;99570.88;;;18.27;24.19
67803;BME280;54601;51.378;-1.342;2022-12-10T07:25:54;99567.58;;;18.47;24.25
67803;BME280;54601;51.378;-1.342;2022-12-10T07:28:18;99566.73;;;18.48;24.20
67803;BME280;54601;51.378;-1.342;2022-12-10T07:30:43;99564.49;;;18.20;24.17
67803;BME280;54601;51.378;-1.342;2022-12-10T07:33:08;99563.09;;;18.44;24.23
67803;BME280;54601;51.378;-1.342;2022-12-10T07:35:34;99564.07;;;18.09;24.30
67803;BME280;54601;51.378;-1.342;2022-12-10T07:37:59;99564.72;;;18.16;24.24
67803;BME280;54601;51.378;-1.342;2022-12-10T07:40:24;99566.22;;;18.10;24.23
67803;BME280;54601;51.378;-1.342;2022-12-10T07:42:49;99569.34;;;18.43;24.14
67803;BME280;54601;51.378;-1.342;2022-12-10T07:45:14;99569.92;;;18.09;24.26
67803;BME280;54601;51.378;-1.342;2022-12-10T07:47:40;99572.54;;;18.03;24.34
67803;BME280;54601;51.378;-1.342;2022-12-10T07:50:06;99573.53;;;18.26;24.35
67803;BME280;54601;51.378;-1.342;2022-12-10T07:52:30;99569.90;;;18.34;24.26
67803;BME280;54601;51.378;-1.342;2022-12-10T07:54:55;99569.03;;;18.50;24.11
67803;BME280;54601;51.378;-1.342;2022-12-10T07:57:20;99570.28;;;18.19;24.18
67803;BME280;54601;51.378;-1.342;2022-12-10T07:59:46;99569.45;;;18.19;24.16
67803;BME280;54601;51.378;-1.342;2022-12-10T08:02:11;99570.59;;;18.47;24.15
67803;BME280;54601;51.378;-1.342;2022-12-10T08:04:36;99567.35;;;18.11;24.27
67803;BME280;54601;51.378;-1.342;2022-12-10T08:07:01;99572.12;;;18.08;24.26
67803;BME280;54601;51.378;-1.342;2022-12-10T08:09:26;99574.82;;;18.11;24.25
67803;BME280;54601;51.378;-1.342;2022-12-10T08:11:52;99579.14;;;18.21;24.10
67803;BME280;54601;51.378;-1.342;2022-12-10T08:14:17;99582.97;;;18.22;24.13
67803;BME280;54601;51.378;-1.342;2022-12-10T08:16:42;99580.59;;;17.74;24.50
67803;BME280;54601;51.378;-1.342;2022-12-10T08:19:08;99581.89;;;18.30;24.32
67803;BME280;54601;51.378;-1.342;2022-12-10T08:21:32;99584.80;;;18.17;24.17
67803;BME280;54601;51.378;-1.342;2022-12-10T08:23:59;99583.22;;;18.49;24.15
67803;BME280;54601;51.378;-1.342;2022-12-10T08:26:24;99580.58;;;18.19;24.17
67803;BME280;54601;51.378;-1.342;2022-12-10T08:28:49;99582.87;;;18.46;24.23
67803;BME280;54601;51.378;-1.342;2022-12-10T08:31:14;99584.92;;;18.23;24.14
67803;BME280;54601;51.378;-1.342;2022-12-10T08:33:39;99587.42;;;18.21;24.17
67803;BME280;54601;51.378;-1.342;2022-12-10T08:36:04;99589.72;;;18.13;24.27
67803;BME280;54601;51.378;-1.342;2022-12-10T08:38:29;99592.45;;;18.46;24.27
67803;BME280;54601;51.378;-1.342;2022-12-10T08:40:54;99590.62;;;18.13;24.31
67803;BME280;54601;51.378;-1.342;2022-12-10T08:43:19;99590.96;;;18.44;24.24
67803;BME280;54601;51.378;-1.342;2022-12-10T08:45:44;99595.03;;;18.27;24.16
67803;BME280;54601;51.378;-1.342;2022-12-10T08:48:09;99594.98;;;18.22;24.20
67803;BME280;54601;51.378;-1.342;2022-12-10T08:50:36;99595.35;;;18.48;24.24
67803;BME280;54601;51.378;-1.342;2022-12-10T08:53:00;99597.33;;;18.16;24.29
67803;BME280;54601;51.378;-1.342;2022-12-10T08:55:25;99602.67;;;18.49;24.22
67803;BME280;54601;51.378;-1.342;2022-12-10T08:57:50;99602.00;;;18.54;24.17
67803;BME280;54601;51.378;-1.342;2022-12-10T09:00:15;99601.46;;;18.23;24.25
67803;BME280;54601;51.378;-1.342;2022-12-10T09:02:40;99604.76;;;18.53;24.23
67803;BME280;54601;51.378;-1.342;2022-12-10T09:05:06;99609.37;;;18.57;24.20
67803;BME280;54601;51.378;-1.342;2022-12-10T09:07:30;99607.78;;;18.27;24.26
67803;BME280;54601;51.378;-1.342;2022-12-10T09:09:56;99608.11;;;18.31;24.22
67803;BME280;54601;51.378;-1.342;2022-12-10T09:12:21;99604.27;;;18.24;24.28
67803;BME280;54601;51.378;-1.342;2022-12-10T09:14:46;99605.85;;;18.20;24.39
67803;BME280;54601;51.378;-1.342;2022-12-10T09:17:11;99607.56;;;18.31;24.27
67803;BME280;54601;51.378;-1.342;2022-12-10T09:19:36;99608.81;;;18.29;24.28
67803;BME280;54601;51.378;-1.342;2022-12-10T09:22:01;99607.29;;;18.62;24.26
67803;BME280;54601;51.378;-1.342;2022-12-10T09:24:26;99605.67;;;18.37;24.30
67803;BME280;54601;51.378;-1.342;2022-12-10T09:26:52;99605.13;;;18.58;24.38
67803;BME280;54601;51.378;-1.342;2022-12-10T09:29:17;99605.67;;;18.59;24.46
67803;BME280;54601;51.378;-1.342;2022-12-10T09:31:42;99606.07;;;18.33;24.54
67803;BME280;54601;51.378;-1.342;2022-12-10T09:34:07;99605.87;;;18.35;24.58
67803;BME280;54601;51.378;-1.342;2022-12-10T09:36:32;99605.96;;;18.39;24.56
67803;BME280;54601;51.378;-1.342;2022-12-10T09:38:57;99606.19;;;18.44;24.52
67803;BME280;54601;51.378;-1.342;2022-12-10T09:43:51;99605.86;;;18.55;24.54
67803;BME280;54601;51.378;-1.342;2022-12-10T09:46:19;99611.19;;;18.41;24.55
67803;BME280;54601;51.378;-1.342;2022-12-10T09:48:50;99609.79;;;18.56;24.66
67803;BME280;54601;51.378;-1.342;2022-12-10T09:51:09;99611.21;;;18.43;24.84
67803;BME280;54601;51.378;-1.342;2022-12-10T09:53:29;99613.72;;;18.40;24.88
67803;BME280;54601;51.378;-1.342;2022-12-10T09:55:54;99614.87;;;18.43;24.98
67803;BME280;54601;51.378;-1.342;2022-12-10T09:58:20;99617.49;;;18.35;24.92
67803;BME280;54601;51.378;-1.342;2022-12-10T10:00:46;99618.22;;;18.79;25.02
67803;BME280;54601;51.378;-1.342;2022-12-10T10:03:12;99617.02;;;18.60;24.99
67803;BME280;54601;51.378;-1.342;2022-12-10T10:05:36;99614.09;;;18.84;25.01
67803;BME280;54601;51.378;-1.342;2022-12-10T10:08:02;99619.43;;;18.62;25.07
67803;BME280;54601;51.378;-1.342;2022-12-10T10:10:27;99619.83;;;18.51;25.04
67803;BME280;54601;51.378;-1.342;2022-12-10T10:12:52;99620.12;;;19.03;25.03
67803;BME280;54601;51.378;-1.342;2022-12-10T10:15:20;99620.68;;;18.55;25.08
67803;BME280;54601;51.378;-1.342;2022-12-10T10:17:42;99623.15;;;18.66;25.03
67803;BME280;54601;51.378;-1.342;2022-12-10T10:20:05;99624.74;;;18.66;25.07
67803;BME280;54601;51.378;-1.342;2022-12-10T10:22:30;99622.51;;;18.79;25.27
67803;BME280;54601;51.378;-1.342;2022-12-10T10:24:55;99621.28;;;18.79;25.07
67803;BME280;54601;51.378;-1.342;2022-12-10T10:27:26;99620.15;;;19.03;25.04
67803;BME280;54601;51.378;-1.342;2022-12-10T10:29:48;99620.25;;;18.88;24.96
67803;BME280;54601;51.378;-1.342;2022-12-10T10:32:14;99619.11;;;18.83;25.09
67803;BME280;54601;51.378;-1.342;2022-12-10T10:34:39;99620.30;;;18.81;25.14
67803;BME280;54601;51.378;-1.342;2022-12-10T10:37:03;99620.52;;;18.90;25.09
67803;BME280;54601;51.378;-1.342;2022-12-10T10:39:28;99619.34;;;18.94;25.07
67803;BME280;54601;51.378;-1.342;2022-12-10T10:41:53;99618.27;;;19.13;25.11
67803;BME280;54601;51.378;-1.342;2022-12-10T10:44:18;99617.11;;;18.88;25.15
67803;BME280;54601;51.378;-1.342;2022-12-10T10:46:42;99615.86;;;19.20;25.05
67803;BME280;54601;51.378;-1.342;2022-12-10T10:49:18;99610.81;;;18.96;25.10
67803;BME280;54601;51.378;-1.342;2022-12-10T10:51:36;99610.81;;;19.04;25.09
67803;BME280;54601;51.378;-1.342;2022-12-10T10:53:56;99610.88;;;19.03;25.04
67803;BME280;54601;51.378;-1.342;2022-12-10T10:56:23;99610.36;;;19.14;25.01
67803;BME280;54601;51.378;-1.342;2022-12-10T10:58:51;99614.18;;;19.29;25.13
67803;BME280;54601;51.378;-1.342;2022-12-10T11:01:12;99616.28;;;19.18;25.02
67803;BME280;54601;51.378;-1.342;2022-12-10T11:03:46;99613.26;;;19.17;25.00
67803;BME280;54601;51.378;-1.342;2022-12-10T11:06:06;99612.99;;;19.13;25.04
67803;BME280;54601;51.378;-1.342;2022-12-10T11:08:30;99612.17;;;19.39;24.98
67803;BME280;54601;51.378;-1.342;2022-12-10T11:10:58;99613.15;;;19.17;25.02
67803;BME280;54601;51.378;-1.342;2022-12-10T11:13:22;99614.70;;;19.45;24.98
67803;BME280;54601;51.378;-1.342;2022-12-10T11:15:42;99611.20;;;19.21;24.95
67803;BME280;54601;51.378;-1.342;2022-12-10T11:20:34;99611.65;;;19.30;24.81
67803;BME280;54601;51.378;-1.342;2022-12-10T11:22:59;99609.51;;;19.21;24.88
67803;BME280;54601;51.378;-1.342;2022-12-10T11:25:33;99609.72;;;19.26;24.93
67803;BME280;54601;51.378;-1.342;2022-12-10T11:27:52;99607.95;;;19.23;24.85
67803;BME280;54601;51.378;-1.342;2022-12-10T11:30:16;99607.60;;;19.21;24.97
67803;BME280;54601;51.378;-1.342;2022-12-10T11:32:50;99609.48;;;19.35;24.82
67803;BME280;54601;51.378;-1.342;2022-12-10T11:35:12;99608.41;;;19.34;24.84
67803;BME280;54601;51.378;-1.342;2022-12-10T11:37:32;99608.82;;;19.30;24.86
67803;BME280;54601;51.378;-1.342;2022-12-10T11:40:06;99605.52;;;19.37;24.76
67803;BME280;54601;51.378;-1.342;2022-12-10T11:42:25;99599.50;;;19.38;24.83
67803;BME280;54601;51.378;-1.342;2022-12-10T11:44:49;99594.26;;;19.38;24.81
67803;BME280;54601;51.378;-1.342;2022-12-10T11:47:24;99587.23;;;19.38;24.80
67803;BME280;54601;51.378;-1.342;2022-12-10T11:49:39;99587.71;;;19.39;24.82
67803;BME280;54601;51.378;-1.342;2022-12-10T11:52:04;99592.10;;;19.35;24.85
67803;BME280;54601;51.378;-1.342;2022-12-10T11:54:34;99590.44;;;19.40;24.77
67803;BME280;54601;51.378;-1.342;2022-12-10T11:56:55;99590.13;;;19.31;24.97
67803;BME280;54601;51.378;-1.342;2022-12-10T11:59:23;99589.17;;;19.30;24.95
67803;BME280;54601;51.378;-1.342;2022-12-10T12:01:52;99584.06;;;19.37;24.83
67803;BME280;54601;51.378;-1.342;2022-12-10T12:04:20;99583.59;;;19.42;24.93
67803;BME280;54601;51.378;-1.342;2022-12-10T12:06:42;99583.36;;;19.30;24.89
67803;BME280;54601;51.378;-1.342;2022-12-10T12:09:01;99586.24;;;19.31;24.95
67803;BME280;54601;51.378;-1.342;2022-12-10T12:11:29;99582.82;;;19.36;24.85
67803;BME280;54601;51.378;-1.342;2022-12-10T12:13:50;99581.55;;;19.28;25.02
67803;BME280;54601;51.378;-1.342;2022-12-10T12:16:13;99583.64;;;19.27;24.94
67803;BME280;54601;51.378;-1.342;2022-12-10T12:18:41;99584.39;;;19.19;25.04
67803;BME280;54601;51.378;-1.342;2022-12-10T12:21:02;99582.42;;;19.28;24.93
67803;BME280;54601;51.378;-1.342;2022-12-10T12:23:29;99583.63;;;19.25;25.06
67803;BME280;54601;51.378;-1.342;2022-12-10T12:25:53;99578.91;;;19.38;24.83
67803;BME280;54601;51.378;-1.342;2022-12-10T12:28:20;99577.70;;;19.31;24.90
67803;BME280;54601;51.378;-1.342;2022-12-10T12:30:42;99576.28;;;19.20;25.03
67803;BME280;54601;51.378;-1.342;2022-12-10T12:33:11;99579.55;;;18.90;25.14
67803;BME280;54601;51.378;-1.342;2022-12-10T12:35:36;99573.01;;;19.22;25.03
67803;BME280;54601;51.378;-1.342;2022-12-10T12:37:58;99572.09;;;19.22;24.98
67803;BME280;54601;51.378;-1.342;2022-12-10T12:40:28;99573.40;;;19.44;25.03
67803;BME280;54601;51.378;-1.342;2022-12-10T12:42:50;99574.41;;;19.16;25.04
67803;BME280;54601;51.378;-1.342;2022-12-10T12:45:13;99570.01;;;19.23;24.95